Terminal Aerodrome Forecast
Issued by NWS

Home | Current Version | Previous Version | Text Only | Print | Product List | Glossary On
Versions: 1 2 3 4 5 6 7 8 9 10 11 12 13 14 15 16 17 18
000
FTUS43 KILX 222300 RRA
TAFCMI
TAF
KCMI 222346Z 2300/2324 23008KT P6SM SCT050 BKN250
     FM230300 22006KT P6SM VCTS SCT060CB
     FM230900 33006KT 5SM BR SCT030
     FM231200 03013KT P6SM SCT060 BKN250=

USA.gov is the U.S. government's official web portal to all federal, state and local government web resources and services.